sensor_id;sensor_type;location;lat;lon;timestamp;temperature;humidity
53498;DHT22;39382;47.168;16.008;2022-08-19T00:01:49;18.70;99.90
53498;DHT22;39382;47.168;16.008;2022-08-19T00:04:15;18.80;99.90
53498;DHT22;39382;47.168;16.008;2022-08-19T00:06:44;18.70;99.90
53498;DHT22;39382;47.168;16.008;2022-08-19T00:09:12;18.70;99.90
53498;DHT22;39382;47.168;16.008;2022-08-19T00:11:38;18.70;99.90
53498;DHT22;39382;47.168;16.008;2022-08-19T00:14:06;18.60;99.90
53498;DHT22;39382;47.168;16.008;2022-08-19T00:16:34;18.60;99.90
53498;DHT22;39382;47.168;16.008;2022-08-19T00:19:00;18.50;99.90
53498;DHT22;39382;47.168;16.008;2022-08-19T00:21:25;18.50;99.90
53498;DHT22;39382;47.168;16.008;2022-08-19T00:23:53;18.50;99.90
53498;DHT22;39382;47.168;16.008;2022-08-19T00:26:20;18.50;99.90
53498;DHT22;39382;47.168;16.008;2022-08-19T00:28:45;18.50;99.90
53498;DHT22;39382;47.168;16.008;2022-08-19T00:31:12;18.40;99.90
53498;DHT22;39382;47.168;16.008;2022-08-19T00:33:38;18.40;99.90
53498;DHT22;39382;47.168;16.008;2022-08-19T00:36:06;18.50;99.90
53498;DHT22;39382;47.168;16.008;2022-08-19T00:38:33;18.40;99.90
53498;DHT22;39382;47.168;16.008;2022-08-19T00:40:59;18.50;99.90
53498;DHT22;39382;47.168;16.008;2022-08-19T00:43:26;18.40;99.90
53498;DHT22;39382;47.168;16.008;2022-08-19T00:45:53;18.40;99.90
53498;DHT22;39382;47.168;16.008;2022-08-19T00:48:20;18.40;99.90
53498;DHT22;39382;47.168;16.008;2022-08-19T00:50:47;18.40;99.90
53498;DHT22;39382;47.168;16.008;2022-08-19T00:53:16;18.30;99.90
53498;DHT22;39382;47.168;16.008;2022-08-19T00:55:48;18.30;99.90
53498;DHT22;39382;47.168;16.008;2022-08-19T00:58:17;18.30;99.90
53498;DHT22;39382;47.168;16.008;2022-08-19T01:00:45;18.30;99.90
53498;DHT22;39382;47.168;16.008;2022-08-19T01:03:13;18.20;99.90
53498;DHT22;39382;47.168;16.008;2022-08-19T01:05:41;18.20;99.90
53498;DHT22;39382;47.168;16.008;2022-08-19T01:08:08;18.10;99.90
53498;DHT22;39382;47.168;16.008;2022-08-19T01:10:39;18.10;99.90
53498;DHT22;39382;47.168;16.008;2022-08-19T01:13:05;18.00;99.90
53498;DHT22;39382;47.168;16.008;2022-08-19T01:15:35;18.00;99.90
53498;DHT22;39382;47.168;16.008;2022-08-19T01:18:15;18.00;99.90
53498;DHT22;39382;47.168;16.008;2022-08-19T01:20:42;17.90;99.90
53498;DHT22;39382;47.168;16.008;2022-08-19T01:23:08;17.90;99.90
53498;DHT22;39382;47.168;16.008;2022-08-19T01:25:41;17.80;99.90
53498;DHT22;39382;47.168;16.008;2022-08-19T01:28:25;17.80;99.90
53498;DHT22;39382;47.168;16.008;2022-08-19T01:30:53;17.80;99.90
53498;DHT22;39382;47.168;16.008;2022-08-19T01:33:20;17.70;99.90
53498;DHT22;39382;47.168;16.008;2022-08-19T01:35:46;17.80;99.90
53498;DHT22;39382;47.168;16.008;2022-08-19T01:38:25;17.80;99.90
53498;DHT22;39382;47.168;16.008;2022-08-19T01:40:52;17.70;99.90
53498;DHT22;39382;47.168;16.008;2022-08-19T01:43:18;17.70;99.90
53498;DHT22;39382;47.168;16.008;2022-08-19T01:45:45;17.60;99.90
53498;DHT22;39382;47.168;16.008;2022-08-19T01:48:12;17.60;99.90
53498;DHT22;39382;47.168;16.008;2022-08-19T01:50:38;17.60;99.90
53498;DHT22;39382;47.168;16.008;2022-08-19T01:53:07;17.60;99.90
53498;DHT22;39382;47.168;16.008;2022-08-19T01:55:35;17.70;99.90
53498;DHT22;39382;47.168;16.008;2022-08-19T01:58:04;17.70;99.90
53498;DHT22;39382;47.168;16.008;2022-08-19T02:00:31;17.70;99.90
53498;DHT22;39382;47.168;16.008;2022-08-19T02:02:58;17.70;99.90
53498;DHT22;39382;47.168;16.008;2022-08-19T02:05:23;17.70;99.90
53498;DHT22;39382;47.168;16.008;2022-08-19T02:07:49;17.70;99.90
53498;DHT22;39382;47.168;16.008;2022-08-19T02:10:21;17.80;99.90
53498;DHT22;39382;47.168;16.008;2022-08-19T02:12:47;17.80;99.90
53498;DHT22;39382;47.168;16.008;2022-08-19T02:15:13;17.80;99.90
53498;DHT22;39382;47.168;16.008;2022-08-19T02:17:40;17.80;99.90
53498;DHT22;39382;47.168;16.008;2022-08-19T02:20:06;17.80;99.90
53498;DHT22;39382;47.168;16.008;2022-08-19T02:22:33;17.90;99.90
53498;DHT22;39382;47.168;16.008;2022-08-19T02:24:58;17.90;99.90
53498;DHT22;39382;47.168;16.008;2022-08-19T02:27:24;17.90;99.90
53498;DHT22;39382;47.168;16.008;2022-08-19T02:29:51;17.90;99.90
53498;DHT22;39382;47.168;16.008;2022-08-19T02:32:18;17.90;99.90
53498;DHT22;39382;47.168;16.008;2022-08-19T02:34:47;17.90;99.90
53498;DHT22;39382;47.168;16.008;2022-08-19T02:37:13;17.90;99.90
53498;DHT22;39382;47.168;16.008;2022-08-19T02:39:58;17.80;99.90
53498;DHT22;39382;47.168;16.008;2022-08-19T02:42:24;17.80;99.90
53498;DHT22;39382;47.168;16.008;2022-08-19T02:44:50;17.70;99.90
53498;DHT22;39382;47.168;16.008;2022-08-19T02:47:18;17.70;99.90
53498;DHT22;39382;47.168;16.008;2022-08-19T02:49:44;17.60;99.90
53498;DHT22;39382;47.168;16.008;2022-08-19T02:52:10;17.60;99.90
53498;DHT22;39382;47.168;16.008;2022-08-19T02:54:37;17.60;99.90
53498;DHT22;39382;47.168;16.008;2022-08-19T02:57:04;17.60;99.90
53498;DHT22;39382;47.168;16.008;2022-08-19T02:59:30;17.50;99.90
53498;DHT22;39382;47.168;16.008;2022-08-19T03:01:56;17.50;99.90
53498;DHT22;39382;47.168;16.008;2022-08-19T03:04:22;17.60;99.90
53498;DHT22;39382;47.168;16.008;2022-08-19T03:06:50;17.60;99.90
53498;DHT22;39382;47.168;16.008;2022-08-19T03:09:16;17.60;99.90
53498;DHT22;39382;47.168;16.008;2022-08-19T03:11:43;17.50;99.90
53498;DHT22;39382;47.168;16.008;2022-08-19T03:14:09;17.50;99.90
53498;DHT22;39382;47.168;16.008;2022-08-19T03:16:46;17.60;99.90
53498;DHT22;39382;47.168;16.008;2022-08-19T03:19:12;17.60;99.90
53498;DHT22;39382;47.168;16.008;2022-08-19T03:21:38;17.60;99.90
53498;DHT22;39382;47.168;16.008;2022-08-19T03:24:06;17.70;99.90
53498;DHT22;39382;47.168;16.008;2022-08-19T03:26:33;17.70;99.90
53498;DHT22;39382;47.168;16.008;2022-08-19T03:29:04;17.70;99.90
53498;DHT22;39382;47.168;16.008;2022-08-19T03:31:30;17.70;99.90
53498;DHT22;39382;47.168;16.008;2022-08-19T03:33:56;17.70;99.90
53498;DHT22;39382;47.168;16.008;2022-08-19T03:36:25;17.70;99.90
53498;DHT22;39382;47.168;16.008;2022-08-19T03:38:54;17.60;99.90
53498;DHT22;39382;47.168;16.008;2022-08-19T03:41:32;17.60;99.90
53498;DHT22;39382;47.168;16.008;2022-08-19T03:43:58;17.60;99.90
53498;DHT22;39382;47.168;16.008;2022-08-19T03:46:31;17.60;99.90
53498;DHT22;39382;47.168;16.008;2022-08-19T03:48:59;17.60;99.90
53498;DHT22;39382;47.168;16.008;2022-08-19T03:51:31;17.70;99.90
53498;DHT22;39382;47.168;16.008;2022-08-19T03:53:59;17.70;99.90
53498;DHT22;39382;47.168;16.008;2022-08-19T03:56:25;17.80;99.90
53498;DHT22;39382;47.168;16.008;2022-08-19T03:58:53;17.80;99.90
53498;DHT22;39382;47.168;16.008;2022-08-19T04:01:21;17.90;99.90
53498;DHT22;39382;47.168;16.008;2022-08-19T04:03:48;17.90;99.90
53498;DHT22;39382;47.168;16.008;2022-08-19T04:06:20;18.00;99.90
53498;DHT22;39382;47.168;16.008;2022-08-19T04:08:48;18.00;99.90
53498;DHT22;39382;47.168;16.008;2022-08-19T04:11:21;18.00;99.90
53498;DHT22;39382;47.168;16.008;2022-08-19T04:13:47;18.00;99.90
53498;DHT22;39382;47.168;16.008;2022-08-19T04:16:14;18.10;99.90
53498;DHT22;39382;47.168;16.008;2022-08-19T04:18:40;18.20;99.90
53498;DHT22;39382;47.168;16.008;2022-08-19T04:21:07;18.20;99.90
53498;DHT22;39382;47.168;16.008;2022-08-19T04:23:34;18.20;99.90
53498;DHT22;39382;47.168;16.008;2022-08-19T04:26:01;18.20;99.90
53498;DHT22;39382;47.168;16.008;2022-08-19T04:28:27;18.30;99.90
53498;DHT22;39382;47.168;16.008;2022-08-19T04:30:55;18.30;99.90
53498;DHT22;39382;47.168;16.008;2022-08-19T04:33:24;18.30;99.90
53498;DHT22;39382;47.168;16.008;2022-08-19T04:35:52;18.30;99.90
53498;DHT22;39382;47.168;16.008;2022-08-19T04:38:21;18.20;99.90
53498;DHT22;39382;47.168;16.008;2022-08-19T04:40:51;18.30;99.90
53498;DHT22;39382;47.168;16.008;2022-08-19T04:43:37;18.30;99.90
53498;DHT22;39382;47.168;16.008;2022-08-19T04:46:11;18.30;99.90
53498;DHT22;39382;47.168;16.008;2022-08-19T04:48:38;19.00;99.90
53498;DHT22;39382;47.168;16.008;2022-08-19T04:51:08;19.80;99.90
53498;DHT22;39382;47.168;16.008;2022-08-19T04:53:35;20.30;99.90
53498;DHT22;39382;47.168;16.008;2022-08-19T04:56:12;20.60;99.90
53498;DHT22;39382;47.168;16.008;2022-08-19T04:58:41;20.70;99.90
53498;DHT22;39382;47.168;16.008;2022-08-19T05:01:11;20.70;99.90
53498;DHT22;39382;47.168;16.008;2022-08-19T05:03:37;20.70;99.90
53498;DHT22;39382;47.168;16.008;2022-08-19T05:06:09;20.70;99.90
53498;DHT22;39382;47.168;16.008;2022-08-19T05:08:36;20.90;99.90
53498;DHT22;39382;47.168;16.008;2022-08-19T05:11:26;20.80;99.90
53498;DHT22;39382;47.168;16.008;2022-08-19T05:13:54;20.70;99.90
53498;DHT22;39382;47.168;16.008;2022-08-19T05:16:21;20.60;99.90
53498;DHT22;39382;47.168;16.008;2022-08-19T05:18:47;20.60;99.90
53498;DHT22;39382;47.168;16.008;2022-08-19T05:21:33;20.70;99.90
53498;DHT22;39382;47.168;16.008;2022-08-19T05:24:18;20.80;99.90
53498;DHT22;39382;47.168;16.008;2022-08-19T05:26:47;20.70;99.90
53498;DHT22;39382;47.168;16.008;2022-08-19T05:29:19;20.60;99.90
53498;DHT22;39382;47.168;16.008;2022-08-19T05:31:46;20.60;99.90
53498;DHT22;39382;47.168;16.008;2022-08-19T05:34:12;20.60;99.90
53498;DHT22;39382;47.168;16.008;2022-08-19T05:36:41;21.00;99.90
53498;DHT22;39382;47.168;16.008;2022-08-19T05:39:12;21.20;99.90
53498;DHT22;39382;47.168;16.008;2022-08-19T05:41:43;21.30;99.90
53498;DHT22;39382;47.168;16.008;2022-08-19T05:44:09;21.30;99.90
53498;DHT22;39382;47.168;16.008;2022-08-19T05:46:36;21.20;99.90
53498;DHT22;39382;47.168;16.008;2022-08-19T05:49:04;21.10;99.90
53498;DHT22;39382;47.168;16.008;2022-08-19T05:51:31;21.30;99.90
53498;DHT22;39382;47.168;16.008;2022-08-19T05:53:58;21.50;99.90
53498;DHT22;39382;47.168;16.008;2022-08-19T05:56:24;21.60;99.90
53498;DHT22;39382;47.168;16.008;2022-08-19T05:58:50;21.90;99.90
53498;DHT22;39382;47.168;16.008;2022-08-19T06:01:17;21.70;99.90
53498;DHT22;39382;47.168;16.008;2022-08-19T06:03:44;21.80;99.90
53498;DHT22;39382;47.168;16.008;2022-08-19T06:06:11;22.00;99.90
53498;DHT22;39382;47.168;16.008;2022-08-19T06:08:38;21.80;99.90
53498;DHT22;39382;47.168;16.008;2022-08-19T06:11:23;21.80;99.90
53498;DHT22;39382;47.168;16.008;2022-08-19T06:13:52;21.60;99.90
53498;DHT22;39382;47.168;16.008;2022-08-19T06:16:19;21.70;99.90
53498;DHT22;39382;47.168;16.008;2022-08-19T06:18:51;21.50;99.90
53498;DHT22;39382;47.168;16.008;2022-08-19T06:21:22;21.50;99.90
53498;DHT22;39382;47.168;16.008;2022-08-19T06:23:48;21.50;99.90
53498;DHT22;39382;47.168;16.008;2022-08-19T06:26:17;21.70;99.90
53498;DHT22;39382;47.168;16.008;2022-08-19T06:28:44;21.60;99.90
53498;DHT22;39382;47.168;16.008;2022-08-19T06:31:13;21.50;99.90
53498;DHT22;39382;47.168;16.008;2022-08-19T06:33:40;21.60;99.90
53498;DHT22;39382;47.168;16.008;2022-08-19T06:36:06;21.60;99.90
53498;DHT22;39382;47.168;16.008;2022-08-19T06:38:32;21.70;99.90
53498;DHT22;39382;47.168;16.008;2022-08-19T06:41:04;21.80;99.90
53498;DHT22;39382;47.168;16.008;2022-08-19T06:43:30;21.80;99.90
53498;DHT22;39382;47.168;16.008;2022-08-19T06:45:56;21.80;99.90
53498;DHT22;39382;47.168;16.008;2022-08-19T06:48:22;21.90;99.90
53498;DHT22;39382;47.168;16.008;2022-08-19T06:50:47;21.90;99.90
53498;DHT22;39382;47.168;16.008;2022-08-19T06:53:15;21.90;99.90
53498;DHT22;39382;47.168;16.008;2022-08-19T06:55:41;22.00;99.90
53498;DHT22;39382;47.168;16.008;2022-08-19T06:58:06;22.00;99.90
53498;DHT22;39382;47.168;16.008;2022-08-19T07:00:33;22.00;99.90
53498;DHT22;39382;47.168;16.008;2022-08-19T07:02:59;22.20;99.90
53498;DHT22;39382;47.168;16.008;2022-08-19T07:05:25;22.20;99.90
53498;DHT22;39382;47.168;16.008;2022-08-19T07:07:51;22.10;99.90
53498;DHT22;39382;47.168;16.008;2022-08-19T07:10:17;22.10;99.90
53498;DHT22;39382;47.168;16.008;2022-08-19T07:12:43;22.10;99.90
53498;DHT22;39382;47.168;16.008;2022-08-19T07:15:09;22.30;99.90
53498;DHT22;39382;47.168;16.008;2022-08-19T07:17:36;22.30;99.90
53498;DHT22;39382;47.168;16.008;2022-08-19T07:20:05;22.30;99.90
53498;DHT22;39382;47.168;16.008;2022-08-19T07:22:32;22.40;99.90
53498;DHT22;39382;47.168;16.008;2022-08-19T07:24:59;22.50;99.90
53498;DHT22;39382;47.168;16.008;2022-08-19T07:27:25;22.60;99.90
53498;DHT22;39382;47.168;16.008;2022-08-19T07:29:54;22.60;99.90
53498;DHT22;39382;47.168;16.008;2022-08-19T07:32:20;22.70;99.90
53498;DHT22;39382;47.168;16.008;2022-08-19T07:34:45;22.80;99.90
53498;DHT22;39382;47.168;16.008;2022-08-19T07:37:11;23.00;99.90
53498;DHT22;39382;47.168;16.008;2022-08-19T07:39:38;23.20;99.90
53498;DHT22;39382;47.168;16.008;2022-08-19T07:42:07;23.30;99.90
53498;DHT22;39382;47.168;16.008;2022-08-19T07:44:33;23.40;99.90
53498;DHT22;39382;47.168;16.008;2022-08-19T07:47:00;23.60;99.90
53498;DHT22;39382;47.168;16.008;2022-08-19T07:49:26;23.70;99.90
53498;DHT22;39382;47.168;16.008;2022-08-19T07:51:56;23.80;99.90
53498;DHT22;39382;47.168;16.008;2022-08-19T07:54:24;23.80;99.90
53498;DHT22;39382;47.168;16.008;2022-08-19T07:56:50;23.80;99.90
53498;DHT22;39382;47.168;16.008;2022-08-19T07:59:17;23.80;99.90
53498;DHT22;39382;47.168;16.008;2022-08-19T08:01:43;23.70;99.90
53498;DHT22;39382;47.168;16.008;2022-08-19T08:04:10;23.70;99.90
53498;DHT22;39382;47.168;16.008;2022-08-19T08:06:54;23.70;99.90
53498;DHT22;39382;47.168;16.008;2022-08-19T08:09:42;23.70;99.90
53498;DHT22;39382;47.168;16.008;2022-08-19T08:12:16;23.60;99.90
53498;DHT22;39382;47.168;16.008;2022-08-19T08:14:45;23.60;99.90
53498;DHT22;39382;47.168;16.008;2022-08-19T08:17:13;23.60;99.90
53498;DHT22;39382;47.168;16.008;2022-08-19T08:19:39;23.60;99.90
53498;DHT22;39382;47.168;16.008;2022-08-19T08:22:07;23.60;99.90
53498;DHT22;39382;47.168;16.008;2022-08-19T08:24:33;23.80;99.90
53498;DHT22;39382;47.168;16.008;2022-08-19T08:27:01;23.90;99.90
53498;DHT22;39382;47.168;16.008;2022-08-19T08:29:28;23.90;99.90
53498;DHT22;39382;47.168;16.008;2022-08-19T08:31:55;24.00;99.90
53498;DHT22;39382;47.168;16.008;2022-08-19T08:34:21;24.10;99.90
53498;DHT22;39382;47.168;16.008;2022-08-19T08:36:47;24.00;99.90
53498;DHT22;39382;47.168;16.008;2022-08-19T08:39:16;24.00;99.90
53498;DHT22;39382;47.168;16.008;2022-08-19T08:44:22;23.90;99.90
53498;DHT22;39382;47.168;16.008;2022-08-19T08:47:00;23.90;99.90
53498;DHT22;39382;47.168;16.008;2022-08-19T08:52:11;23.70;99.90
53498;DHT22;39382;47.168;16.008;2022-08-19T08:54:43;23.60;99.90
53498;DHT22;39382;47.168;16.008;2022-08-19T08:57:24;23.60;99.90
53498;DHT22;39382;47.168;16.008;2022-08-19T08:59:54;23.60;99.90
53498;DHT22;39382;47.168;16.008;2022-08-19T09:02:21;23.50;99.90
53498;DHT22;39382;47.168;16.008;2022-08-19T09:04:47;23.60;99.90
53498;DHT22;39382;47.168;16.008;2022-08-19T09:08:30;23.60;99.90
53498;DHT22;39382;47.168;16.008;2022-08-19T09:10:34;23.80;99.90
53498;DHT22;39382;47.168;16.008;2022-08-19T09:15:36;24.00;99.90
53498;DHT22;39382;47.168;16.008;2022-08-19T09:18:05;24.00;99.90
53498;DHT22;39382;47.168;16.008;2022-08-19T09:20:31;24.10;99.90
53498;DHT22;39382;47.168;16.008;2022-08-19T09:22:57;24.10;99.90
53498;DHT22;39382;47.168;16.008;2022-08-19T09:25:25;24.10;99.90
53498;DHT22;39382;47.168;16.008;2022-08-19T09:27:52;24.10;99.90
53498;DHT22;39382;47.168;16.008;2022-08-19T09:30:38;24.10;99.90
53498;DHT22;39382;47.168;16.008;2022-08-19T09:33:05;24.10;99.90
53498;DHT22;39382;47.168;16.008;2022-08-19T09:35:32;24.00;99.90
53498;DHT22;39382;47.168;16.008;2022-08-19T09:37:59;24.00;99.90
53498;DHT22;39382;47.168;16.008;2022-08-19T09:40:28;24.00;99.90
53498;DHT22;39382;47.168;16.008;2022-08-19T09:42:54;24.10;99.90
53498;DHT22;39382;47.168;16.008;2022-08-19T09:45:21;24.20;99.90
53498;DHT22;39382;47.168;16.008;2022-08-19T09:47:51;24.40;99.90
53498;DHT22;39382;47.168;16.008;2022-08-19T09:50:18;24.50;99.90
53498;DHT22;39382;47.168;16.008;2022-08-19T09:52:43;24.50;99.90
53498;DHT22;39382;47.168;16.008;2022-08-19T09:55:10;24.70;99.90
53498;DHT22;39382;47.168;16.008;2022-08-19T09:57:36;24.80;99.90
53498;DHT22;39382;47.168;16.008;2022-08-19T10:00:07;24.90;99.90
53498;DHT22;39382;47.168;16.008;2022-08-19T10:02:34;24.80;99.90
53498;DHT22;39382;47.168;16.008;2022-08-19T10:05:00;24.80;99.90
53498;DHT22;39382;47.168;16.008;2022-08-19T10:07:45;24.80;99.90
53498;DHT22;39382;47.168;16.008;2022-08-19T10:10:11;24.80;99.90
53498;DHT22;39382;47.168;16.008;2022-08-19T10:12:37;24.70;99.90
53498;DHT22;39382;47.168;16.008;2022-08-19T10:15:04;24.70;99.90
53498;DHT22;39382;47.168;16.008;2022-08-19T10:17:30;24.60;99.90
53498;DHT22;39382;47.168;16.008;2022-08-19T10:19:57;24.70;99.90
53498;DHT22;39382;47.168;16.008;2022-08-19T10:22:23;24.70;99.90
53498;DHT22;39382;47.168;16.008;2022-08-19T10:24:49;24.80;99.90
53498;DHT22;39382;47.168;16.008;2022-08-19T10:27:15;24.90;99.90
53498;DHT22;39382;47.168;16.008;2022-08-19T10:29:41;24.90;99.90
53498;DHT22;39382;47.168;16.008;2022-08-19T10:32:08;24.90;99.90
53498;DHT22;39382;47.168;16.008;2022-08-19T10:34:37;24.80;99.90
53498;DHT22;39382;47.168;16.008;2022-08-19T10:37:05;24.80;99.90
53498;DHT22;39382;47.168;16.008;2022-08-19T10:39:35;24.80;99.90
53498;DHT22;39382;47.168;16.008;2022-08-19T10:42:08;24.80;99.90
53498;DHT22;39382;47.168;16.008;2022-08-19T10:44:36;24.70;99.90
53498;DHT22;39382;47.168;16.008;2022-08-19T10:47:02;24.60;99.90
53498;DHT22;39382;47.168;16.008;2022-08-19T10:49:29;24.70;99.90
53498;DHT22;39382;47.168;16.008;2022-08-19T10:51:55;24.70;99.90
53498;DHT22;39382;47.168;16.008;2022-08-19T10:54:40;24.70;99.90
53498;DHT22;39382;47.168;16.008;2022-08-19T10:57:24;24.80;99.90
53498;DHT22;39382;47.168;16.008;2022-08-19T10:59:55;25.00;99.90
53498;DHT22;39382;47.168;16.008;2022-08-19T11:02:21;25.10;99.90
53498;DHT22;39382;47.168;16.008;2022-08-19T11:04:46;25.20;99.90
53498;DHT22;39382;47.168;16.008;2022-08-19T11:07:15;25.20;99.90
53498;DHT22;39382;47.168;16.008;2022-08-19T11:09:41;25.20;99.90
53498;DHT22;39382;47.168;16.008;2022-08-19T11:12:08;25.20;99.90
53498;DHT22;39382;47.168;16.008;2022-08-19T11:14:35;25.10;99.90
53498;DHT22;39382;47.168;16.008;2022-08-19T11:17:03;25.10;99.90
53498;DHT22;39382;47.168;16.008;2022-08-19T11:19:29;25.10;99.90
53498;DHT22;39382;47.168;16.008;2022-08-19T11:21:55;25.10;99.90
53498;DHT22;39382;47.168;16.008;2022-08-19T11:24:23;25.00;99.90
53498;DHT22;39382;47.168;16.008;2022-08-19T11:26:51;25.00;99.90
53498;DHT22;39382;47.168;16.008;2022-08-19T11:29:20;25.00;99.90
53498;DHT22;39382;47.168;16.008;2022-08-19T11:31:49;25.00;99.90
53498;DHT22;39382;47.168;16.008;2022-08-19T11:34:17;25.10;99.90
53498;DHT22;39382;47.168;16.008;2022-08-19T11:36:45;25.10;99.90
53498;DHT22;39382;47.168;16.008;2022-08-19T11:39:14;25.10;99.90
53498;DHT22;39382;47.168;16.008;2022-08-19T11:41:40;25.00;99.90
53498;DHT22;39382;47.168;16.008;2022-08-19T11:44:06;24.90;99.90
53498;DHT22;39382;47.168;16.008;2022-08-19T11:46:35;24.80;99.90
53498;DHT22;39382;47.168;16.008;2022-08-19T11:49:02;24.70;99.90
53498;DHT22;39382;47.168;16.008;2022-08-19T11:51:28;24.50;99.90
53498;DHT22;39382;47.168;16.008;2022-08-19T11:53:56;24.40;99.90
53498;DHT22;39382;47.168;16.008;2022-08-19T11:56:23;24.40;99.90
53498;DHT22;39382;47.168;16.008;2022-08-19T11:58:49;24.20;99.90
53498;DHT22;39382;47.168;16.008;2022-08-19T12:01:17;24.20;99.90
53498;DHT22;39382;47.168;16.008;2022-08-19T12:03:44;24.00;99.90
53498;DHT22;39382;47.168;16.008;2022-08-19T12:06:19;23.90;99.90
53498;DHT22;39382;47.168;16.008;2022-08-19T12:08:46;23.80;99.90
53498;DHT22;39382;47.168;16.008;2022-08-19T12:11:13;23.70;99.90
53498;DHT22;39382;47.168;16.008;2022-08-19T12:13:39;23.70;99.90
53498;DHT22;39382;47.168;16.008;2022-08-19T12:16:15;23.70;99.90
53498;DHT22;39382;47.168;16.008;2022-08-19T12:18:42;23.70;99.90
53498;DHT22;39382;47.168;16.008;2022-08-19T12:21:12;23.70;99.90
53498;DHT22;39382;47.168;16.008;2022-08-19T12:23:40;23.80;99.90
53498;DHT22;39382;47.168;16.008;2022-08-19T12:26:05;23.80;99.90
53498;DHT22;39382;47.168;16.008;2022-08-19T12:28:31;23.90;99.90
53498;DHT22;39382;47.168;16.008;2022-08-19T12:30:57;24.00;99.90
53498;DHT22;39382;47.168;16.008;2022-08-19T12:33:23;24.10;99.90
53498;DHT22;39382;47.168;16.008;2022-08-19T12:35:50;24.30;99.90
53498;DHT22;39382;47.168;16.008;2022-08-19T12:38:15;24.60;99.90
53498;DHT22;39382;47.168;16.008;2022-08-19T12:40:41;25.00;99.90
53498;DHT22;39382;47.168;16.008;2022-08-19T12:43:10;25.20;99.90
53498;DHT22;39382;47.168;16.008;2022-08-19T12:45:37;25.50;99.90
53498;DHT22;39382;47.168;16.008;2022-08-19T12:48:03;25.70;99.90
53498;DHT22;39382;47.168;16.008;2022-08-19T12:50:29;25.90;99.90
53498;DHT22;39382;47.168;16.008;2022-08-19T12:52:56;26.00;99.90
53498;DHT22;39382;47.168;16.008;2022-08-19T12:55:22;26.10;99.90
53498;DHT22;39382;47.168;16.008;2022-08-19T12:57:48;26.20;99.90
53498;DHT22;39382;47.168;16.008;2022-08-19T13:00:16;26.30;97.50
53498;DHT22;39382;47.168;16.008;2022-08-19T13:02:45;26.30;95.60
53498;DHT22;39382;47.168;16.008;2022-08-19T13:05:13;26.50;91.40
53498;DHT22;39382;47.168;16.008;2022-08-19T13:07:40;26.50;90.80
53498;DHT22;39382;47.168;16.008;2022-08-19T13:10:08;26.50;90.30
53498;DHT22;39382;47.168;16.008;2022-08-19T13:12:35;26.60;91.70
53498;DHT22;39382;47.168;16.008;2022-08-19T13:15:00;26.60;90.90
53498;DHT22;39382;47.168;16.008;2022-08-19T13:17:27;26.60;89.00
53498;DHT22;39382;47.168;16.008;2022-08-19T13:19:53;26.60;86.30
53498;DHT22;39382;47.168;16.008;2022-08-19T13:22:18;26.50;88.40
53498;DHT22;39382;47.168;16.008;2022-08-19T13:24:44;26.50;86.90
53498;DHT22;39382;47.168;16.008;2022-08-19T13:27:10;26.40;87.00
53498;DHT22;39382;47.168;16.008;2022-08-19T13:29:35;26.50;88.10
53498;DHT22;39382;47.168;16.008;2022-08-19T13:32:19;26.50;89.10
53498;DHT22;39382;47.168;16.008;2022-08-19T13:35:11;26.50;87.00
53498;DHT22;39382;47.168;16.008;2022-08-19T13:37:37;26.70;86.40
53498;DHT22;39382;47.168;16.008;2022-08-19T13:40:20;26.80;87.30
53498;DHT22;39382;47.168;16.008;2022-08-19T13:42:50;27.10;86.00
53498;DHT22;39382;47.168;16.008;2022-08-19T13:45:22;27.20;84.90
53498;DHT22;39382;47.168;16.008;2022-08-19T13:47:52;27.30;84.40
53498;DHT22;39382;47.168;16.008;2022-08-19T13:50:21;27.40;84.90
53498;DHT22;39382;47.168;16.008;2022-08-19T13:52:48;27.50;83.60
53498;DHT22;39382;47.168;16.008;2022-08-19T13:55:14;27.70;83.90
53498;DHT22;39382;47.168;16.008;2022-08-19T13:57:41;27.70;83.10
53498;DHT22;39382;47.168;16.008;2022-08-19T14:00:14;27.70;90.30
53498;DHT22;39382;47.168;16.008;2022-08-19T14:02:40;27.70;80.00
53498;DHT22;39382;47.168;16.008;2022-08-19T14:05:09;27.80;89.70
53498;DHT22;39382;47.168;16.008;2022-08-19T14:07:35;27.70;84.80
53498;DHT22;39382;47.168;16.008;2022-08-19T14:10:03;27.70;83.20
53498;DHT22;39382;47.168;16.008;2022-08-19T14:12:29;27.60;84.80
53498;DHT22;39382;47.168;16.008;2022-08-19T14:14:57;27.50;84.50
53498;DHT22;39382;47.168;16.008;2022-08-19T14:17:23;27.50;86.10
53498;DHT22;39382;47.168;16.008;2022-08-19T14:19:48;27.40;86.80
53498;DHT22;39382;47.168;16.008;2022-08-19T14:22:14;27.40;88.50
53498;DHT22;39382;47.168;16.008;2022-08-19T14:24:40;27.30;87.80
53498;DHT22;39382;47.168;16.008;2022-08-19T14:27:06;27.30;88.50
53498;DHT22;39382;47.168;16.008;2022-08-19T14:29:33;27.20;90.80
53498;DHT22;39382;47.168;16.008;2022-08-19T14:31:59;27.30;90.90
53498;DHT22;39382;47.168;16.008;2022-08-19T14:34:25;27.40;90.00
53498;DHT22;39382;47.168;16.008;2022-08-19T14:36:52;27.50;87.10
53498;DHT22;39382;47.168;16.008;2022-08-19T14:39:19;27.60;87.50
53498;DHT22;39382;47.168;16.008;2022-08-19T14:41:44;27.80;86.10
53498;DHT22;39382;47.168;16.008;2022-08-19T14:44:10;27.80;79.50
53498;DHT22;39382;47.168;16.008;2022-08-19T14:46:38;27.90;79.60
53498;DHT22;39382;47.168;16.008;2022-08-19T14:49:04;27.90;80.80
53498;DHT22;39382;47.168;16.008;2022-08-19T14:51:30;27.80;80.20
53498;DHT22;39382;47.168;16.008;2022-08-19T14:53:56;27.70;81.50
53498;DHT22;39382;47.168;16.008;2022-08-19T14:56:25;27.70;82.60
53498;DHT22;39382;47.168;16.008;2022-08-19T14:58:51;27.70;81.70
53498;DHT22;39382;47.168;16.008;2022-08-19T15:01:18;27.60;82.40
53498;DHT22;39382;47.168;16.008;2022-08-19T15:03:46;27.70;82.20
53498;DHT22;39382;47.168;16.008;2022-08-19T15:06:12;27.80;82.40
53498;DHT22;39382;47.168;16.008;2022-08-19T15:08:39;27.80;82.50
53498;DHT22;39382;47.168;16.008;2022-08-19T15:11:15;27.90;83.00
53498;DHT22;39382;47.168;16.008;2022-08-19T15:13:43;28.00;85.00
53498;DHT22;39382;47.168;16.008;2022-08-19T15:16:10;28.00;80.30
53498;DHT22;39382;47.168;16.008;2022-08-19T15:18:36;28.10;79.40
53498;DHT22;39382;47.168;16.008;2022-08-19T15:21:02;28.10;79.30
53498;DHT22;39382;47.168;16.008;2022-08-19T15:23:28;28.10;78.40
53498;DHT22;39382;47.168;16.008;2022-08-19T15:25:54;28.10;77.60
53498;DHT22;39382;47.168;16.008;2022-08-19T15:28:24;28.10;77.60
53498;DHT22;39382;47.168;16.008;2022-08-19T15:30:50;28.10;77.60